Time;durP1;ratioP1;P1;durP2;ratioP2;P2;SDS_P1;SDS_P2;PMS_P1;PMS_P2;Temp;Humidity;BMP_temperature;BMP_pressure;BME280_temperature;BME280_humidity;BME280_pressure;Samples;Min_cycle;Max_cycle;Signal;HPM_P1;HPM_P2
2023/02/23 00:00:20;;;;;;;10.18;4.60;;;;;;;7.63;54.04;93770.31;5104065;28;20020;-75
2023/02/23 00:02:48;;;;;;;8.43;3.88;;;;;;;7.59;54.18;93775.44;5104064;28;20052;-75
2023/02/23 00:05:14;;;;;;;8.77;4.57;;;;;;;7.55;54.20;93769.16;5104144;28;20040;-75
2023/02/23 00:07:42;;;;;;;7.95;4.13;;;;;;;7.50;54.35;93777.22;5103970;28;20113;-75
2023/02/23 00:10:12;;;;;;;9.75;4.47;;;;;;;7.46;54.71;93773.56;5104148;28;20016;-76
2023/02/23 00:12:41;;;;;;;11.60;4.75;;;;;;;7.46;54.89;93772.78;5103729;28;20027;-75
2023/02/23 00:15:08;;;;;;;9.82;4.78;;;;;;;7.38;55.15;93769.75;5104090;28;20024;-75
2023/02/23 00:17:35;;;;;;;9.63;5.05;;;;;;;7.38;55.17;93769.75;5103881;28;20314;-75
2023/02/23 00:20:06;;;;;;;11.60;5.30;;;;;;;7.31;55.46;93777.31;5103667;28;20222;-75
2023/02/23 00:22:32;;;;;;;11.10;5.22;;;;;;;7.30;55.72;93783.69;5103897;28;20019;-75
2023/02/23 00:24:58;;;;;;;9.98;4.85;;;;;;;7.27;55.69;93781.63;5103883;28;20096;-75
2023/02/23 00:27:24;;;;;;;14.23;5.82;;;;;;;7.22;56.08;93777.22;5103540;28;20028;-75
2023/02/23 00:29:49;;;;;;;10.73;5.28;;;;;;;7.21;56.19;93785.47;5103688;28;20075;-75
2023/02/23 00:32:18;;;;;;;14.35;5.93;;;;;;;7.19;56.39;93779.66;5103508;28;20020;-75
2023/02/23 00:34:47;;;;;;;10.73;5.57;;;;;;;7.14;56.58;93788.47;5103587;28;20301;-75
2023/02/23 00:37:13;;;;;;;12.55;6.07;;;;;;;7.10;56.66;93782.19;5103548;28;20065;-75
2023/02/23 00:39:39;;;;;;;9.02;4.93;;;;;;;7.12;56.92;93782.69;5103339;28;20201;-74
2023/02/23 00:42:05;;;;;;;9.48;5.07;;;;;;;7.10;56.71;93787.47;5103410;28;20020;-75
2023/02/23 00:44:32;;;;;;;8.93;4.85;;;;;;;7.05;57.02;93779.63;5103491;28;20034;-74
2023/02/23 00:46:58;;;;;;;11.20;5.82;;;;;;;7.01;57.20;93776.00;5103230;28;20059;-75
2023/02/23 00:49:24;;;;;;;11.23;5.28;;;;;;;7.00;57.34;93775.22;5103416;28;20020;-75
2023/02/23 00:51:50;;;;;;;10.85;5.10;;;;;;;6.99;57.28;93775.50;5102009;28;20028;-74
2023/02/23 00:54:17;;;;;;;12.15;5.88;;;;;;;6.96;57.39;93768.94;5101949;28;20019;-74
2023/02/23 00:56:43;;;;;;;9.15;4.50;;;;;;;6.96;57.50;93776.06;5102129;28;20032;-74
2023/02/23 00:59:09;;;;;;;10.25;5.25;;;;;;;6.94;57.43;93781.69;5103209;28;20047;-75
2023/02/23 01:01:36;;;;;;;12.80;5.93;;;;;;;6.88;57.65;93764.31;5102336;28;20259;-74
2023/02/23 01:04:02;;;;;;;12.95;5.38;;;;;;;6.84;57.90;93771.28;5103066;28;20047;-74
2023/02/23 01:06:27;;;;;;;11.95;5.72;;;;;;;6.78;57.84;93761.84;5103106;28;20028;-75
2023/02/23 01:08:55;;;;;;;10.95;5.57;;;;;;;6.77;58.29;93773.50;5103087;28;20055;-75
2023/02/23 01:11:26;;;;;;;13.32;5.95;;;;;;;6.78;58.33;93773.22;5102903;28;20016;-75
2023/02/23 01:13:54;;;;;;;11.07;6.10;;;;;;;6.76;58.28;93779.88;5103041;28;20069;-75
2023/02/23 01:16:25;;;;;;;15.02;6.03;;;;;;;6.73;58.22;93775.16;5102946;28;20020;-75
2023/02/23 01:18:50;;;;;;;13.18;5.97;;;;;;;6.71;58.45;93779.94;5103148;28;20098;-76
2023/02/23 01:21:19;;;;;;;15.35;6.75;;;;;;;6.67;58.65;93771.00;5103084;28;20318;-76
2023/02/23 01:23:45;;;;;;;12.43;5.93;;;;;;;6.66;58.86;93780.06;5103055;28;20222;-76
2023/02/23 01:26:32;;;;;;;16.83;6.97;;;;;;;6.62;59.02;93780.63;5102913;28;20103;-75
2023/02/23 01:29:01;;;;;;;19.33;7.50;;;;;;;6.60;59.13;93776.69;5102804;28;20066;-75
2023/02/23 01:31:28;;;;;;;13.07;7.38;;;;;;;6.59;59.13;93773.25;5102882;28;20024;-74
2023/02/23 01:33:55;;;;;;;14.07;8.40;;;;;;;6.56;59.32;93775.69;5102949;28;20020;-75
2023/02/23 01:36:21;;;;;;;16.15;7.97;;;;;;;6.57;59.46;93780.72;5102777;28;20031;-75
2023/02/23 01:38:48;;;;;;;18.55;8.20;;;;;;;6.54;59.27;93778.63;5102767;28;20274;-74
2023/02/23 01:41:14;;;;;;;21.58;9.75;;;;;;;6.55;59.17;93774.13;5102772;28;20060;-74
2023/02/23 01:44:03;;;;;;;23.00;10.05;;;;;;;6.53;59.23;93771.75;5101624;28;20058;-74
2023/02/23 01:46:39;;;;;;;41.72;12.32;;;;;;;6.46;59.73;93774.00;5102535;28;20320;-74
2023/02/23 01:49:08;;;;;;;31.15;13.93;;;;;;;6.43;60.06;93771.91;5102805;28;20035;-74
2023/02/23 01:51:41;;;;;;;34.58;13.65;;;;;;;6.42;60.05;93771.13;5102678;28;20016;-75
2023/02/23 01:54:14;;;;;;;36.05;13.82;;;;;;;6.40;60.01;93767.97;5102722;28;20073;-75
2023/02/23 01:56:43;;;;;;;37.63;13.52;;;;;;;6.40;60.20;93773.28;5102709;28;20020;-75
2023/02/23 01:59:14;;;;;;;29.50;13.15;;;;;;;6.41;60.29;93774.06;5102625;28;20040;-75
2023/02/23 02:01:41;;;;;;;26.90;11.43;;;;;;;6.42;60.36;93767.69;5102613;28;20020;-75
2023/02/23 02:04:07;;;;;;;31.25;13.05;;;;;;;6.41;60.39;93758.16;5102516;28;20024;-75
2023/02/23 02:06:35;;;;;;;40.47;13.50;;;;;;;6.40;60.54;93751.31;5102697;28;20020;-75
2023/02/23 02:09:08;;;;;;;37.00;14.88;;;;;;;6.45;60.45;93761.81;5102429;28;20028;-75
2023/02/23 02:11:36;;;;;;;34.70;13.93;;;;;;;6.46;60.28;93755.47;5102612;28;20016;-75
2023/02/23 02:14:19;;;;;;;30.50;12.85;;;;;;;6.48;60.07;93753.31;5105878;28;20024;-75
2023/02/23 02:16:51;;;;;;;28.77;11.73;;;;;;;6.46;60.03;93750.16;5106095;28;20032;-74
2023/02/23 02:19:28;;;;;;;26.98;11.20;;;;;;;6.44;60.20;93749.66;5106234;28;20226;-74
2023/02/23 02:22:18;;;;;;;23.67;10.02;;;;;;;6.46;60.04;93749.38;5106205;28;20099;-75
2023/02/23 02:25:11;;;;;;;22.83;8.98;;;;;;;6.45;60.07;93751.22;5104970;28;20207;-74
2023/02/23 02:28:07;;;;;;;22.65;8.05;;;;;;;6.47;60.01;93754.38;5106084;28;20046;-74
2023/02/23 02:31:01;;;;;;;15.52;7.47;;;;;;;6.47;60.16;93757.00;5106187;28;20099;-74
2023/02/23 02:33:33;;;;;;;15.00;6.63;;;;;;;6.46;60.13;93760.75;5105960;28;20095;-75
2023/02/23 02:36:17;;;;;;;;;;;;;;;6.46;60.08;93760.75;5106365;28;20301;-74
2023/02/23 02:38:55;;;;;;;24.42;7.63;;;;;;;6.40;60.10;93767.97;5105660;28;19911;-75
2023/02/23 02:41:43;;;;;;;17.80;7.13;;;;;;;6.41;60.17;93766.13;5105782;28;20218;-75
2023/02/23 02:44:17;;;;;;;16.55;6.60;;;;;;;6.41;59.97;93763.47;5105713;28;20027;-74
2023/02/23 02:46:48;;;;;;;20.98;7.25;;;;;;;6.36;60.26;93760.91;5105420;28;20059;-75
2023/02/23 02:49:18;;;;;;;19.83;6.55;;;;;;;6.36;60.13;93764.34;5105645;28;20032;-74
2023/02/23 02:51:51;;;;;;;17.35;6.22;;;;;;;6.33;60.27;93756.19;5105535;28;20122;-75
2023/02/23 02:54:37;;;;;;;16.60;7.07;;;;;;;6.33;60.25;93758.81;5105422;28;20209;-74
2023/02/23 02:57:08;;;;;;;17.60;5.95;;;;;;;6.27;60.42;93757.34;5105622;28;20031;-75
2023/02/23 04:19:53;;;;;;;27.13;12.13;;;;;;;5.34;64.84;93784.97;5103697;28;20074;-74
2023/02/23 04:22:19;;;;;;;30.92;12.13;;;;;;;5.38;64.99;93785.97;5103861;28;20269;-74
2023/02/23 04:24:45;;;;;;;25.25;11.23;;;;;;;5.32;65.01;93781.03;5103847;28;20016;-74
2023/02/23 04:27:11;;;;;;;30.30;12.50;;;;;;;5.30;64.94;93777.88;5103796;28;20091;-74
2023/02/23 04:29:36;;;;;;;24.02;12.57;;;;;;;5.24;65.42;93785.09;5103797;28;20032;-74
2023/02/23 04:32:02;;;;;;;26.98;11.52;;;;;;;5.23;65.32;93786.94;5103690;28;20187;-74
2023/02/23 04:34:27;;;;;;;24.85;10.50;;;;;;;5.24;65.14;93787.72;5103563;28;20199;-74
2023/02/23 04:36:53;;;;;;;22.92;10.70;;;;;;;5.21;65.02;93780.34;5103507;28;20020;-74
2023/02/23 04:39:18;;;;;;;19.77;9.63;;;;;;;5.20;65.03;93781.44;5103647;28;20103;-74
2023/02/23 04:41:44;;;;;;;21.80;9.63;;;;;;;5.20;64.94;93789.34;5103265;28;20056;-74
2023/02/23 04:44:10;;;;;;;21.20;10.70;;;;;;;5.20;64.90;93786.72;5103455;28;20020;-74
2023/02/23 04:46:35;;;;;;;25.83;10.32;;;;;;;5.16;64.70;93783.84;5103448;28;20043;-74
2023/02/23 04:49:00;;;;;;;17.83;9.43;;;;;;;5.14;64.80;93787.84;5103331;28;20019;-74
2023/02/23 04:51:31;;;;;;;16.98;9.57;;;;;;;5.16;64.76;93785.69;5103243;28;20069;-73
2023/02/23 04:53:56;;;;;;;18.80;9.98;;;;;;;5.14;64.71;93788.59;5103361;28;20011;-73
2023/02/23 04:56:22;;;;;;;19.15;9.45;;;;;;;5.13;64.76;93787.06;5103143;28;20023;-74
2023/02/23 04:58:47;;;;;;;17.63;9.05;;;;;;;5.16;65.19;93788.34;5103145;28;20020;-73
2023/02/23 05:01:13;;;;;;;17.77;8.48;;;;;;;5.14;65.23;93785.97;5103046;28;20036;-73
2023/02/23 05:03:38;;;;;;;15.00;7.78;;;;;;;5.11;65.21;93786.53;5103207;28;20090;-74
2023/02/23 05:06:04;;;;;;;16.80;7.88;;;;;;;5.11;65.61;93789.19;5103317;28;20027;-75
2023/02/23 05:08:29;;;;;;;20.80;8.20;;;;;;;5.12;65.10;93788.09;5102866;28;20028;-75
2023/02/23 05:10:55;;;;;;;15.52;8.23;;;;;;;5.11;65.20;93791.81;5103075;28;20020;-74
2023/02/23 05:13:20;;;;;;;17.38;8.35;;;;;;;5.14;65.34;93791.25;5103091;28;20366;-75
2023/02/23 05:15:46;;;;;;;14.68;7.72;;;;;;;5.11;65.30;93785.72;5102811;28;20041;-75
2023/02/23 05:18:11;;;;;;;19.60;7.95;;;;;;;5.13;65.70;93788.88;5102639;28;20020;-75
2023/02/23 05:20:37;;;;;;;22.17;8.10;;;;;;;5.13;65.71;93787.06;5102955;28;20331;-74
2023/02/23 05:23:03;;;;;;;18.00;8.48;;;;;;;5.13;65.85;93792.34;5102130;28;20027;-74
2023/02/23 05:25:28;;;;;;;19.67;8.38;;;;;;;5.12;65.65;93797.88;5102149;28;20024;-74
2023/02/23 05:27:53;;;;;;;24.20;7.45;;;;;;;5.10;65.44;93797.38;5102076;28;20035;-73
2023/02/23 05:30:19;;;;;;;16.75;8.23;;;;;;;5.08;65.53;93796.88;5100587;28;20012;-75
2023/02/23 05:32:44;;;;;;;17.88;7.85;;;;;;;5.08;65.38;93802.94;5101866;28;20326;-73
2023/02/23 05:35:11;;;;;;;18.60;8.63;;;;;;;5.06;65.29;93815.66;5101055;28;20038;-73
2023/02/23 05:37:36;;;;;;;16.45;7.60;;;;;;;5.02;65.44;93810.13;5101039;28;20031;-74
2023/02/23 05:40:02;;;;;;;21.02;8.63;;;;;;;5.05;65.49;93813.28;5101697;28;20230;-74
2023/02/23 05:42:27;;;;;;;24.83;9.40;;;;;;;5.03;65.67;93816.22;5101987;28;20063;-74
2023/02/23 05:44:53;;;;;;;16.90;8.90;;;;;;;5.05;65.68;93815.91;5102005;28;20062;-74
2023/02/23 05:47:18;;;;;;;22.52;10.55;;;;;;;5.03;65.70;93817.00;5103250;28;20044;-74
2023/02/23 05:49:45;;;;;;;24.33;10.20;;;;;;;5.07;65.92;93819.06;5106583;28;20030;-74
2023/02/23 05:52:10;;;;;;;23.80;10.45;;;;;;;5.03;65.95;93824.13;5106799;28;20199;-74
2023/02/23 05:54:35;;;;;;;16.98;10.30;;;;;;;5.03;66.04;93818.84;5106686;28;20051;-73
2023/02/23 05:57:01;;;;;;;22.67;11.35;;;;;;;5.05;65.94;93831.75;5106420;28;20031;-74
2023/02/23 05:59:26;;;;;;;32.47;13.40;;;;;;;5.07;65.84;93837.56;5106295;28;20426;-74
2023/02/23 06:01:52;;;;;;;69.68;30.60;;;;;;;5.08;65.93;93833.88;5105219;28;20020;-73
2023/02/23 06:04:18;;;;;;;90.10;38.17;;;;;;;5.15;66.08;93836.94;5106277;28;20027;-74
2023/02/23 06:06:44;;;;;;;70.35;32.00;;;;;;;5.20;66.24;93839.56;5106150;28;20023;-74
2023/02/23 06:09:09;;;;;;;85.95;36.08;;;;;;;5.26;66.16;93843.72;5106062;28;20028;-74
2023/02/23 06:11:35;;;;;;;74.97;33.90;;;;;;;5.30;66.06;93841.31;5106187;28;20116;-74
2023/02/23 06:14:00;;;;;;;82.78;37.17;;;;;;;5.35;65.83;93854.47;5105935;28;20035;-73
2023/02/23 06:16:26;;;;;;;59.25;29.13;;;;;;;5.36;65.80;93845.47;5105716;28;20102;-73
2023/02/23 06:18:52;;;;;;;42.13;18.50;;;;;;;5.43;65.84;93843.28;5105845;28;20028;-74
2023/02/23 06:21:18;;;;;;;35.35;15.77;;;;;;;5.46;65.84;93853.31;5105972;28;20055;-74
2023/02/23 06:23:44;;;;;;;34.30;14.88;;;;;;;5.51;65.89;93852.47;5106057;28;20051;-74
2023/02/23 06:26:09;;;;;;;29.42;13.57;;;;;;;5.55;65.86;93853.47;5105888;28;20035;-74
2023/02/23 06:28:35;;;;;;;32.53;14.95;;;;;;;5.55;65.77;93858.75;5105894;28;20316;-75
2023/02/23 06:31:00;;;;;;;33.17;15.38;;;;;;;5.56;66.06;93860.34;5105754;28;20020;-74
2023/02/23 06:33:26;;;;;;;35.58;14.07;;;;;;;5.59;66.20;93859.78;5105840;28;20028;-75
2023/02/23 06:35:51;;;;;;;25.80;13.95;;;;;;;5.61;66.28;93868.22;5105782;28;20023;-75
2023/02/23 06:38:17;;;;;;;26.92;13.73;;;;;;;5.60;66.16;93867.44;5105877;28;20230;-75
2023/02/23 06:40:43;;;;;;;24.48;12.70;;;;;;;5.62;66.39;93862.66;5105469;28;20056;-75
2023/02/23 06:43:09;;;;;;;37.30;13.43;;;;;;;5.63;66.37;93866.84;5105506;28;20035;-74
2023/02/23 06:45:34;;;;;;;25.52;12.88;;;;;;;5.66;66.71;93865.53;5105382;28;20051;-74
2023/02/23 06:47:59;;;;;;;25.42;11.52;;;;;;;5.73;67.10;93865.97;5105603;28;20040;-74
2023/02/23 06:50:25;;;;;;;20.52;10.63;;;;;;;5.79;67.07;93864.03;5104360;28;20020;-74
2023/02/23 06:52:51;;;;;;;32.80;14.20;;;;;;;5.90;66.77;93870.00;5105738;28;20031;-75
2023/02/23 06:55:16;;;;;;;31.45;13.77;;;;;;;5.94;66.67;93865.72;5105496;28;20028;-75
2023/02/23 06:57:42;;;;;;;31.42;12.82;;;;;;;6.01;66.98;93866.19;5105435;28;20050;-75
2023/02/23 07:00:09;;;;;;;40.58;15.93;;;;;;;6.10;67.14;93869.00;5103953;28;20042;-74
2023/02/23 07:02:36;;;;;;;28.92;15.38;;;;;;;6.17;67.09;93864.94;5105517;28;20265;-74
2023/02/23 07:05:02;;;;;;;37.53;15.32;;;;;;;6.23;66.83;93870.94;5105221;28;20020;-74
2023/02/23 07:07:28;;;;;;;46.30;16.70;;;;;;;6.29;66.64;93871.66;5105125;28;20065;-74
2023/02/23 07:09:53;;;;;;;44.38;15.35;;;;;;;6.35;65.56;93873.16;5105023;28;20269;-74
2023/02/23 07:12:19;;;;;;;33.05;14.80;;;;;;;6.38;64.64;93867.31;5103886;28;20019;-74
2023/02/23 07:14:45;;;;;;;31.80;15.73;;;;;;;6.36;64.71;93872.09;5105051;28;20043;-74
2023/02/23 07:17:11;;;;;;;36.38;15.77;;;;;;;6.44;64.25;93868.81;5103857;28;20322;-74
2023/02/23 07:19:36;;;;;;;36.28;14.48;;;;;;;6.52;63.92;93880.63;5104670;28;20035;-76
2023/02/23 07:22:03;;;;;;;26.75;13.50;;;;;;;6.56;62.94;93876.31;5104981;28;20023;-82
2023/02/23 07:24:29;;;;;;;25.70;12.27;;;;;;;6.61;62.20;93876.25;5104924;28;20050;-82
2023/02/23 07:26:55;;;;;;;28.67;12.27;;;;;;;6.66;62.02;93875.41;5104747;28;20020;-81
2023/02/23 07:29:22;;;;;;;31.33;14.13;;;;;;;6.73;62.53;93873.94;5104482;28;20202;-82
2023/02/23 07:31:48;;;;;;;28.48;11.55;;;;;;;6.81;61.33;93868.00;5104778;28;20217;-81
2023/02/23 07:34:14;;;;;;;27.20;10.90;;;;;;;6.86;61.11;93861.84;5104291;28;20016;-80
2023/02/23 07:36:40;;;;;;;34.05;10.35;;;;;;;6.91;60.54;93868.91;5104528;28;20310;-81
2023/02/23 07:39:05;;;;;;;25.80;10.02;;;;;;;6.97;60.36;93868.53;5104619;28;20022;-80
2023/02/23 07:41:31;;;;;;;26.60;9.52;;;;;;;7.05;59.95;93867.09;5104180;28;20099;-78
2023/02/23 07:44:00;;;;;;;25.30;10.60;;;;;;;7.12;59.67;93858.75;5104646;28;20020;-78
2023/02/23 07:46:25;;;;;;;19.30;9.68;;;;;;;7.20;59.18;93858.09;5104420;28;20044;-78
2023/02/23 07:48:51;;;;;;;21.35;9.73;;;;;;;7.27;59.19;93858.50;5104341;28;20107;-78
2023/02/23 07:51:17;;;;;;;27.30;10.73;;;;;;;7.35;58.91;93862.38;5104342;28;20210;-77
2023/02/23 07:53:43;;;;;;;33.42;11.70;;;;;;;7.43;58.78;93862.47;5104427;28;20191;-77
2023/02/23 07:56:10;;;;;;;27.67;11.93;;;;;;;7.50;59.04;93856.78;5104363;28;20023;-77
2023/02/23 07:58:37;;;;;;;26.35;12.13;;;;;;;7.58;58.69;93853.44;5104398;28;20016;-78
2023/02/23 08:01:03;;;;;;;36.67;12.45;;;;;;;7.70;58.46;93850.31;5104484;28;20051;-79
2023/02/23 08:03:29;;;;;;;30.70;12.65;;;;;;;7.77;57.91;93857.88;5104342;28;20340;-79
2023/02/23 08:05:54;;;;;;;31.00;12.25;;;;;;;7.82;58.00;93852.47;5104117;28;20016;-78
2023/02/23 08:08:20;;;;;;;26.38;11.02;;;;;;;7.88;57.89;93863.78;5102993;28;20024;-79
2023/02/23 08:10:47;;;;;;;23.80;11.57;;;;;;;7.95;57.24;93854.31;5103338;28;20038;-79
2023/02/23 08:13:13;;;;;;;31.20;12.02;;;;;;;8.01;57.17;93849.69;5103941;28;20023;-77
2023/02/23 08:15:38;;;;;;;28.80;12.38;;;;;;;8.00;57.49;93848.16;5103984;28;20023;-77
2023/02/23 08:18:04;;;;;;;30.90;11.93;;;;;;;8.09;57.30;93846.34;5103613;28;20260;-77
2023/02/23 08:20:29;;;;;;;28.77;11.90;;;;;;;8.14;57.06;93850.75;5102401;28;20016;-79
2023/02/23 08:22:56;;;;;;;32.25;12.35;;;;;;;8.23;56.68;93849.78;5103537;28;20046;-80
2023/02/23 08:25:22;;;;;;;32.97;12.63;;;;;;;8.31;56.33;93847.50;5103551;28;20069;-79
2023/02/23 08:27:50;;;;;;;27.00;11.93;;;;;;;8.38;56.33;93858.50;5103639;28;20024;-79
2023/02/23 08:30:18;;;;;;;35.90;11.90;;;;;;;8.51;55.73;93863.03;5103371;28;20020;-80
2023/02/23 08:32:47;;;;;;;30.40;11.60;;;;;;;8.59;55.51;93859.66;5102194;28;20027;-80
2023/02/23 08:35:13;;;;;;;37.45;12.38;;;;;;;8.62;55.54;93855.59;5103534;28;20249;-76
2023/02/23 08:37:39;;;;;;;26.83;10.50;;;;;;;8.70;55.11;93854.88;5103298;28;20020;-77
2023/02/23 08:40:05;;;;;;;26.48;11.10;;;;;;;8.81;54.70;93858.91;5103487;28;20032;-77
2023/02/23 08:42:30;;;;;;;21.45;10.27;;;;;;;8.90;54.64;93856.28;5103358;28;20027;-77
2023/02/23 08:44:55;;;;;;;23.58;10.35;;;;;;;9.04;54.26;93854.34;5102013;28;20020;-77
2023/02/23 08:47:22;;;;;;;28.70;11.32;;;;;;;9.08;53.92;93854.53;5103080;28;20035;-77
2023/02/23 08:49:49;;;;;;;29.45;10.63;;;;;;;9.17;53.72;93842.06;5103370;28;20023;-76
2023/02/23 08:52:15;;;;;;;30.42;11.75;;;;;;;9.28;53.81;93842.63;5103164;28;20095;-77
2023/02/23 08:54:40;;;;;;;29.98;9.43;;;;;;;9.42;52.86;93845.97;5103338;28;20019;-76
2023/02/23 08:57:05;;;;;;;20.40;10.30;;;;;;;9.36;53.33;93854.38;5103051;28;20019;-77
2023/02/23 08:59:31;;;;;;;25.50;9.75;;;;;;;9.46;52.66;93853.34;5103094;28;20311;-78
2023/02/23 09:01:56;;;;;;;21.58;9.23;;;;;;;9.56;52.18;93837.09;5103255;28;20358;-77
2023/02/23 09:04:22;;;;;;;26.70;10.27;;;;;;;9.66;52.08;93844.81;5103065;28;20035;-75
2023/02/23 09:06:49;;;;;;;29.95;9.10;;;;;;;9.77;51.68;93851.44;5103384;28;20024;-74
2023/02/23 09:09:15;;;;;;;26.17;9.35;;;;;;;9.83;51.64;93847.56;5102986;28;20046;-74
2023/02/23 09:11:41;;;;;;;21.50;9.52;;;;;;;9.98;51.17;93846.34;5102958;28;20061;-73
2023/02/23 09:14:07;;;;;;;27.70;9.40;;;;;;;10.11;51.30;93846.53;5103022;28;20020;-72
2023/02/23 09:16:34;;;;;;;20.95;9.85;;;;;;;10.21;51.00;93847.03;5103223;28;20054;-72
2023/02/23 09:19:00;;;;;;;31.40;10.20;;;;;;;10.28;50.58;93846.59;5102709;28;20087;-76
2023/02/23 09:21:28;;;;;;;20.77;9.95;;;;;;;10.38;50.14;93840.19;5102447;28;20035;-73
2023/02/23 09:23:54;;;;;;;20.88;10.65;;;;;;;10.51;50.20;93843.81;5102430;28;20019;-75
2023/02/23 09:26:21;;;;;;;31.90;10.88;;;;;;;10.64;49.75;93849.00;5102896;28;20023;-75
2023/02/23 09:28:47;;;;;;;20.42;10.05;;;;;;;10.80;49.13;93840.53;5102850;28;20098;-74
2023/02/23 09:31:18;;;;;;;25.98;9.95;;;;;;;10.86;48.44;93841.94;5102841;28;20012;-76
2023/02/23 09:33:43;;;;;;;24.48;10.18;;;;;;;10.95;48.38;93842.72;5102803;28;20257;-73
2023/02/23 09:36:17;;;;;;;30.23;10.68;;;;;;;11.06;48.33;93847.72;5102789;28;20020;-72
2023/02/23 09:38:44;;;;;;;33.95;10.93;;;;;;;11.20;48.32;93848.34;5102883;28;20012;-73
2023/02/23 09:41:25;;;;;;;17.73;9.52;;;;;;;11.36;47.99;93852.06;5102365;28;20081;-77
2023/02/23 09:44:01;;;;;;;28.90;10.30;;;;;;;11.51;47.48;93847.31;5102859;28;20028;-76
2023/02/23 09:46:32;;;;;;;25.30;10.70;;;;;;;11.52;46.87;93856.88;5102383;28;20052;-75
2023/02/23 09:49:02;;;;;;;28.80;10.93;;;;;;;11.63;46.04;93844.78;5102676;28;20031;-72
2023/02/23 09:51:31;;;;;;;35.35;10.68;;;;;;;11.73;46.19;93847.09;5102317;28;20237;-74
2023/02/23 09:54:01;;;;;;;20.75;9.68;;;;;;;11.87;45.21;93843.44;5102757;28;20070;-73
2023/02/23 09:56:34;;;;;;;20.60;9.68;;;;;;;11.93;45.14;93836.84;5102405;28;20328;-76
2023/02/23 09:59:01;;;;;;;21.58;8.85;;;;;;;11.98;44.61;93833.97;5102238;28;20050;-80
2023/02/23 10:01:29;;;;;;;21.50;10.23;;;;;;;12.01;44.59;93838.69;5102442;28;20028;-77
2023/02/23 10:04:06;;;;;;;21.35;9.18;;;;;;;12.11;45.53;93832.16;5102598;28;20270;-77
2023/02/23 10:06:33;;;;;;;25.02;10.27;;;;;;;12.11;44.45;93834.84;5102589;28;20306;-76
2023/02/23 10:09:18;;;;;;;24.67;9.55;;;;;;;12.22;44.34;93842.16;5102706;28;20047;-79
2023/02/23 10:11:55;;;;;;;17.90;9.18;;;;;;;12.31;43.64;93830.63;5101345;28;20020;-77
2023/02/23 10:14:56;;;;;;;15.30;8.77;;;;;;;12.34;43.98;93835.34;5102337;28;20020;-75
2023/02/23 10:17:48;;;;;;;27.60;9.20;;;;;;;12.49;43.86;93829.41;5102487;28;20055;-81
2023/02/23 10:20:42;;;;;;;21.30;9.75;;;;;;;12.69;44.06;93827.09;5102622;28;20266;-79
2023/02/23 10:23:14;;;;;;;19.60;9.30;;;;;;;12.79;43.44;93816.00;5102442;28;20261;-79
2023/02/23 10:25:45;;;;;;;21.73;9.95;;;;;;;12.92;43.29;93812.25;5102492;28;20020;-77
2023/02/23 10:28:20;;;;;;;21.30;10.52;;;;;;;13.05;43.15;93816.53;5102212;28;20315;-77
2023/02/23 10:30:48;;;;;;;22.98;9.77;;;;;;;13.10;42.13;93817.44;5102296;28;20024;-79
2023/02/23 10:33:17;;;;;;;18.02;9.73;;;;;;;13.21;41.96;93803.34;5102857;28;20028;-77
2023/02/23 10:35:43;;;;;;;23.23;9.80;;;;;;;13.35;41.56;93810.28;5105901;28;20035;-79
2023/02/23 10:38:17;;;;;;;25.00;10.40;;;;;;;13.44;41.33;93795.72;5105645;28;20028;-78
2023/02/23 10:40:48;;;;;;;21.73;9.05;;;;;;;13.53;41.14;93808.22;5105391;28;20050;-78
2023/02/23 10:43:13;;;;;;;23.80;9.88;;;;;;;13.59;41.22;93796.19;5105757;28;20049;-77
2023/02/23 10:45:47;;;;;;;16.67;8.23;;;;;;;13.64;40.46;93793.28;5105915;28;20056;-77
2023/02/23 10:48:21;;;;;;;19.73;9.07;;;;;;;13.70;40.56;93797.31;5105621;28;20024;-78
2023/02/23 10:50:49;;;;;;;23.70;9.88;;;;;;;13.76;39.93;93789.81;5105572;28;20016;-80
2023/02/23 10:53:25;;;;;;;20.50;8.55;;;;;;;13.81;40.23;93795.75;5105625;28;20020;-80
2023/02/23 10:56:14;;;;;;;14.18;8.30;;;;;;;13.91;40.84;93789.16;5105529;28;20035;-79
2023/02/23 10:58:46;;;;;;;19.60;9.55;;;;;;;13.99;39.87;93779.47;5105605;28;20039;-81
2023/02/23 11:01:14;;;;;;;17.58;8.73;;;;;;;13.96;39.69;93774.75;5105449;28;20069;-80
2023/02/23 11:03:51;;;;;;;23.25;8.55;;;;;;;14.09;39.60;93768.28;5105288;28;20040;-79
2023/02/23 11:06:41;;;;;;;19.38;8.63;;;;;;;14.21;39.52;93776.31;5105291;28;20072;-80
2023/02/23 11:09:26;;;;;;;25.30;7.70;;;;;;;14.44;38.87;93765.09;5105386;28;20020;-79
2023/02/23 11:12:04;;;;;;;16.10;6.93;;;;;;;14.51;38.17;93768.00;5105152;28;20023;-79
2023/02/23 11:14:30;;;;;;;22.60;7.60;;;;;;;14.69;38.41;93767.72;5105163;28;20043;-79
2023/02/23 11:16:57;;;;;;;13.15;7.53;;;;;;;14.79;38.23;93762.66;5105072;28;20024;-79
2023/02/23 11:19:31;;;;;;;17.13;8.35;;;;;;;14.83;37.91;93752.03;5104678;28;20024;-79
2023/02/23 11:21:57;;;;;;;17.27;7.35;;;;;;;15.04;37.92;93760.66;5104904;28;20028;-79
2023/02/23 11:24:39;;;;;;;18.15;6.40;;;;;;;15.31;37.04;93750.22;5105007;28;20031;-80
2023/02/23 11:27:18;;;;;;;17.25;6.47;;;;;;;15.55;37.43;93756.53;5105046;28;20028;-81
2023/02/23 11:29:49;;;;;;;14.77;5.35;;;;;;;15.86;36.98;93749.66;5104795;28;20020;-80
2023/02/23 11:32:29;;;;;;;9.38;5.40;;;;;;;16.08;35.87;93746.31;5105095;28;20016;-80
2023/02/23 11:35:25;;;;;;;17.02;5.40;;;;;;;16.31;35.05;93748.34;5104675;28;20031;-79
2023/02/23 11:37:52;;;;;;;15.43;5.45;;;;;;;16.53;34.89;93746.88;5104826;28;20069;-80
2023/02/23 11:40:19;;;;;;;8.65;4.50;;;;;;;16.57;33.28;93743.13;5104583;28;20031;-80
2023/02/23 11:43:05;;;;;;;13.77;4.97;;;;;;;16.65;32.82;93739.44;5104603;28;20314;-80
2023/02/23 11:45:36;;;;;;;13.60;5.18;;;;;;;16.80;33.11;93731.66;5103752;28;20020;-79
2023/02/23 11:48:03;;;;;;;10.18;4.47;;;;;;;17.02;33.50;93738.25;5104604;28;20081;-80
2023/02/23 11:50:32;;;;;;;13.57;4.97;;;;;;;17.20;33.16;93733.97;5104281;28;20024;-78
2023/02/23 11:53:15;;;;;;;13.45;5.50;;;;;;;17.35;32.84;93735.00;5104535;28;20032;-80
2023/02/23 11:55:48;;;;;;;21.25;8.93;;;;;;;17.56;32.56;93736.50;5104218;28;20069;-79
2023/02/23 11:58:32;;;;;;;11.15;5.60;;;;;;;17.53;31.83;93731.84;5103092;28;20030;-79
2023/02/23 12:01:01;;;;;;;12.02;5.90;;;;;;;17.59;31.62;93725.78;5104230;28;20042;-79
2023/02/23 12:03:30;;;;;;;12.38;5.03;;;;;;;17.59;32.10;93725.00;5104229;28;20047;-78
2023/02/23 12:05:58;;;;;;;9.85;5.45;;;;;;;17.67;32.28;93729.38;5104079;28;20030;-79
2023/02/23 12:08:46;;;;;;;31.05;6.40;;;;;;;17.81;32.45;93729.59;5103977;28;20273;-80
2023/02/23 12:11:20;;;;;;;15.85;5.05;;;;;;;17.97;31.48;93725.97;5104150;28;20008;-79
2023/02/23 12:14:09;;;;;;;26.10;8.20;;;;;;;18.11;31.69;93720.78;5104051;28;20126;-78
2023/02/23 12:16:42;;;;;;;12.38;5.30;;;;;;;18.20;31.53;93729.41;5103644;28;20055;-79
2023/02/23 12:19:20;;;;;;;15.80;6.18;;;;;;;18.31;31.17;93718.75;5104386;28;20031;-80
2023/02/23 12:21:52;;;;;;;16.90;5.53;;;;;;;18.42;31.31;93719.69;5102585;28;20051;-81
2023/02/23 12:24:42;;;;;;;7.70;4.53;;;;;;;18.56;31.06;93719.09;5103787;28;20031;-81
2023/02/23 12:27:13;;;;;;;13.48;5.75;;;;;;;18.62;30.72;93717.63;5103753;28;20098;-80
2023/02/23 12:29:54;;;;;;;16.90;4.65;;;;;;;18.62;30.76;93712.25;5102697;28;20408;-80
2023/02/23 12:32:56;;;;;;;9.10;4.60;;;;;;;18.61;30.56;93710.66;5103541;28;20341;-80
2023/02/23 12:35:30;;;;;;;9.27;5.25;;;;;;;18.51;30.48;93705.16;5103543;28;20090;-79
2023/02/23 12:38:05;;;;;;;12.00;4.90;;;;;;;18.51;30.97;93708.63;5103661;28;20016;-79
2023/02/23 12:40:34;;;;;;;17.73;5.40;;;;;;;18.49;31.05;93702.81;5103506;28;20085;-79
2023/02/23 12:43:10;;;;;;;15.95;5.63;;;;;;;18.56;31.18;93711.00;5102192;28;20399;-80
2023/02/23 12:45:54;;;;;;;33.40;5.22;;;;;;;18.65;31.09;93710.72;5103417;28;20023;-79
2023/02/23 12:49:11;;;;;;;14.13;5.07;;;;;;;18.70;30.98;93709.59;5103408;28;20032;-78
2023/02/23 12:51:46;;;;;;;20.73;5.45;;;;;;;18.73;30.22;93714.28;5067296;28;20062;-78
2023/02/23 12:54:15;;;;;;;12.88;6.03;;;;;;;18.70;30.50;93706.91;5102900;28;20133;-78
2023/02/23 12:56:54;;;;;;;11.20;4.97;;;;;;;18.71;30.50;93711.19;5102515;28;20196;-79
2023/02/23 12:59:24;;;;;;;12.45;5.65;;;;;;;18.73;31.10;93703.50;5103109;28;20032;-78
2023/02/23 13:02:07;;;;;;;18.40;5.93;;;;;;;18.79;30.83;93694.72;5102984;28;20027;-77